Wan Hai 501 — S6AS7 — position and weather

sailwx.info

Track history (hours):
 
Tides and Currents Weather Stations Pressure Air Temp Water Temp Dewpoint Dewpoint Depression Visibility Wind Speed Wind Dir Waves Ship Positions

Wan Hai 501

Last reported at 2018-May-19 20:39 UTC. Time now 2018-May-22 12:04 UTC.
Position N 01°21' E 103°16'.

Length 269 m; draft 12.1 m.

Type: Cargo ship. MMSI: 563382000.

Date/timePositionNaut miles runAvg speedWind from/ knotsBaromVisibWave heightAir tempDewpointWater temp
2018-May-19 20:39N 01°21' E 103°16'316.4
2018-May-19 20:29N 01°19' E 103°18'816.2
2018-May-19 20:00N 01°15' E 103°24'815.3
2018-May-19 19:30N 01°13' E 103°31'714.7
2018-May-19 19:00N 01°11' E 103°39'612.5
2018-May-19 18:31N 01°08' E 103°44'816.1
2018-May-19 18:00N 01°12' E 103°51'4 7.1
2018-May-19 17:30N 01°15' E 103°51'1 1.2
2018-May-19 17:00N 01°16' E 103°50'0 0.0
2018-May-19 16:28N 01°16' E 103°50'0 0.0
2018-May-19 15:56N 01°16' E 103°50'0 0.0
2018-May-19 15:28N 01°16' E 103°50'0 0.0
2018-May-19 14:43N 01°16' E 103°50'0 0.0
2018-May-19 14:31N 01°16' E 103°50'0 0.0
2018-May-19 13:59N 01°16' E 103°50'0 0.0
2018-May-19 13:29N 01°16' E 103°50'0 0.0
2018-May-19 12:58N 01°16' E 103°50'0 0.0
2018-May-19 12:28N 01°16' E 103°50'0 0.0
2018-May-19 11:55N 01°16' E 103°50'0 0.0
2018-May-19 11:25N 01°16' E 103°50'0 0.0
2018-May-19 11:01N 01°16' E 103°50'0 0.0
2018-May-19 10:28N 01°16' E 103°50'0 0.0
2018-May-19 09:58N 01°16' E 103°50'0 0.0
2018-May-19 09:28N 01°16' E 103°50'0 0.0
2018-May-19 08:58N 01°16' E 103°50'0 0.0
2018-May-19 08:28N 01°16' E 103°50'0 0.0
2018-May-19 08:01N 01°16' E 103°50'0 0.0
2018-May-19 07:31N 01°16' E 103°50'0 0.0
2018-May-19 07:01N 01°16' E 103°50'0 0.0
2018-May-19 06:29N 01°16' E 103°50'1 1.5
2018-May-19 06:00N 01°16' E 103°51'3 5.5
2018-May-19 05:30N 01°14' E 103°53'2 4.0
2018-May-19 05:01N 01°14' E 103°55'5 9.0
2018-May-19 04:30N 01°15' E 103°59'5 9.4
2018-May-19 04:00N 01°16' E 104°04'4 8.6
2018-May-19 03:30N 01°17' E 104°08'5 9.8
2018-May-19 02:59N 01°17' E 104°13'510.3
2018-May-19 02:30N 01°18' E 104°18'611.2
2018-May-19 02:00N 01°21' E 104°23'4 7.4
2018-May-19 01:30N 01°24' E 104°26'4 7.5
2018-May-19 00:57N 01°27' E 104°28'14 8.7
2018-May-18 23:23N 01°38' E 104°36'1 1.6
2018-May-18 23:00N 01°38' E 104°37'1 1.1
2018-May-18 22:22N 01°38' E 104°38'1 2.0
2018-May-18 21:58N 01°39' E 104°38'2 4.6
2018-May-18 21:31N 01°41' E 104°39'915.5
2018-May-18 20:57N 01°49' E 104°42'612.7
2018-May-18 20:28N 01°54' E 104°46'  
2018-May-13 17:18N 23°14' E 117°24'719.7
2018-May-13 16:56N 23°19' E 117°30'919.7
2018-May-13 16:30N 23°25' E 117°37'1019.8
2018-May-13 16:00N 23°31' E 117°45'1019.5
2018-May-13 15:30N 23°37' E 117°54'1019.8
2018-May-13 15:00N 23°45' E 118°00'919.1
2018-May-13 14:30N 23°50' E 118°09'1019.3
2018-May-13 14:00N 23°56' E 118°18'918.9
2018-May-13 13:30N 24°02' E 118°26'918.9
2018-May-13 13:00N 24°07' E 118°34'1018.9
2018-May-13 12:30N 24°13' E 118°42'918.4
2018-May-13 12:00N 24°19' E 118°50'2318.9
2018-May-13 10:48N 24°33' E 119°10'518.2
2018-May-13 10:30N 24°36' E 119°14'1918.0
2018-May-13 09:26N 24°49' E 119°30'  
Track history (hours):
 
Tides and Currents Weather Stations Pressure Air Temp Water Temp Dewpoint Dewpoint Depression Visibility Wind Speed Wind Dir Waves Ship Positions

Wan Hai 501

Last reported at 2018-May-19 20:39 UTC. Time now 2018-May-22 12:04 UTC.
Position N 01°21' E 103°16'.

Length 269 m; draft 12.1 m.

Type: Cargo ship. MMSI: 563382000.

Date/timePositionNaut miles runAvg speedWind from/ knotsBaromVisibWave heightAir tempDewpointWater temp
2018-May-19 20:39N 01°21' E 103°16'316.4
2018-May-19 20:29N 01°19' E 103°18'816.2
2018-May-19 20:00N 01°15' E 103°24'815.3
2018-May-19 19:30N 01°13' E 103°31'714.7
2018-May-19 19:00N 01°11' E 103°39'612.5
2018-May-19 18:31N 01°08' E 103°44'816.1
2018-May-19 18:00N 01°12' E 103°51'4 7.1
2018-May-19 17:30N 01°15' E 103°51'1 1.2
2018-May-19 17:00N 01°16' E 103°50'0 0.0
2018-May-19 16:28N 01°16' E 103°50'0 0.0
2018-May-19 15:56N 01°16' E 103°50'0 0.0
2018-May-19 15:28N 01°16' E 103°50'0 0.0
2018-May-19 14:43N 01°16' E 103°50'0 0.0
2018-May-19 14:31N 01°16' E 103°50'0 0.0
2018-May-19 13:59N 01°16' E 103°50'0 0.0
2018-May-19 13:29N 01°16' E 103°50'0 0.0
2018-May-19 12:58N 01°16' E 103°50'0 0.0
2018-May-19 12:28N 01°16' E 103°50'0 0.0
2018-May-19 11:55N 01°16' E 103°50'0 0.0
2018-May-19 11:25N 01°16' E 103°50'0 0.0
2018-May-19 11:01N 01°16' E 103°50'0 0.0
2018-May-19 10:28N 01°16' E 103°50'0 0.0
2018-May-19 09:58N 01°16' E 103°50'0 0.0
2018-May-19 09:28N 01°16' E 103°50'0 0.0
2018-May-19 08:58N 01°16' E 103°50'0 0.0
2018-May-19 08:28N 01°16' E 103°50'0 0.0
2018-May-19 08:01N 01°16' E 103°50'0 0.0
2018-May-19 07:31N 01°16' E 103°50'0 0.0
2018-May-19 07:01N 01°16' E 103°50'0 0.0
2018-May-19 06:29N 01°16' E 103°50'1 1.5
2018-May-19 06:00N 01°16' E 103°51'3 5.5
2018-May-19 05:30N 01°14' E 103°53'2 4.0
2018-May-19 05:01N 01°14' E 103°55'5 9.0
2018-May-19 04:30N 01°15' E 103°59'5 9.4
2018-May-19 04:00N 01°16' E 104°04'4 8.6
2018-May-19 03:30N 01°17' E 104°08'5 9.8
2018-May-19 02:59N 01°17' E 104°13'510.3
2018-May-19 02:30N 01°18' E 104°18'611.2
2018-May-19 02:00N 01°21' E 104°23'4 7.4
2018-May-19 01:30N 01°24' E 104°26'4 7.5
2018-May-19 00:57N 01°27' E 104°28'14 8.7
2018-May-18 23:23N 01°38' E 104°36'1 1.6
2018-May-18 23:00N 01°38' E 104°37'1 1.1
2018-May-18 22:22N 01°38' E 104°38'1 2.0
2018-May-18 21:58N 01°39' E 104°38'2 4.6
2018-May-18 21:31N 01°41' E 104°39'915.5
2018-May-18 20:57N 01°49' E 104°42'612.7
2018-May-18 20:28N 01°54' E 104°46'  
2018-May-13 17:18N 23°14' E 117°24'719.7
2018-May-13 16:56N 23°19' E 117°30'919.7
2018-May-13 16:30N 23°25' E 117°37'1019.8
2018-May-13 16:00N 23°31' E 117°45'1019.5
2018-May-13 15:30N 23°37' E 117°54'1019.8
2018-May-13 15:00N 23°45' E 118°00'919.1
2018-May-13 14:30N 23°50' E 118°09'1019.3
2018-May-13 14:00N 23°56' E 118°18'918.9
2018-May-13 13:30N 24°02' E 118°26'918.9
2018-May-13 13:00N 24°07' E 118°34'1018.9
2018-May-13 12:30N 24°13' E 118°42'918.4
2018-May-13 12:00N 24°19' E 118°50'2318.9
2018-May-13 10:48N 24°33' E 119°10'518.2
2018-May-13 10:30N 24°36' E 119°14'1918.0
2018-May-13 09:26N 24°49' E 119°30'  

Dump ship's entire track history